sensor_id;sensor_type;location;lat;lon;timestamp;P1;durP1;ratioP1;P2;durP2;ratioP2
19927;SDS011;10126;50.876;4.470;2022-07-23T00:01:47;0.10;;;0.10;;
19927;SDS011;10126;50.876;4.470;2022-07-23T00:03:47;0.10;;;0.10;;
19927;SDS011;10126;50.876;4.470;2022-07-23T00:05:49;0.10;;;0.10;;
19927;SDS011;10126;50.876;4.470;2022-07-23T00:07:49;0.20;;;0.20;;
19927;SDS011;10126;50.876;4.470;2022-07-23T00:09:50;0.10;;;0.10;;
19927;SDS011;10126;50.876;4.470;2022-07-23T00:11:51;0.20;;;0.20;;
19927;SDS011;10126;50.876;4.470;2022-07-23T00:13:51;0.13;;;0.13;;
19927;SDS011;10126;50.876;4.470;2022-07-23T00:15:53;0.10;;;0.10;;
19927;SDS011;10126;50.876;4.470;2022-07-23T00:17:54;0.10;;;0.10;;
19927;SDS011;10126;50.876;4.470;2022-07-23T00:19:54;0.13;;;0.13;;
19927;SDS011;10126;50.876;4.470;2022-07-23T00:21:55;0.10;;;0.10;;
19927;SDS011;10126;50.876;4.470;2022-07-23T00:23:55;0.10;;;0.10;;
19927;SDS011;10126;50.876;4.470;2022-07-23T00:25:56;0.13;;;0.13;;
19927;SDS011;10126;50.876;4.470;2022-07-23T00:27:58;0.10;;;0.10;;
19927;SDS011;10126;50.876;4.470;2022-07-23T00:29:59;0.20;;;0.20;;
19927;SDS011;10126;50.876;4.470;2022-07-23T00:31:59;0.07;;;0.07;;
19927;SDS011;10126;50.876;4.470;2022-07-23T00:34:00;0.20;;;0.20;;
19927;SDS011;10126;50.876;4.470;2022-07-23T00:36:03;0.20;;;0.20;;
19927;SDS011;10126;50.876;4.470;2022-07-23T00:38:04;0.20;;;0.20;;
19927;SDS011;10126;50.876;4.470;2022-07-23T00:40:05;0.10;;;0.10;;
19927;SDS011;10126;50.876;4.470;2022-07-23T00:42:06;0.20;;;0.20;;
19927;SDS011;10126;50.876;4.470;2022-07-23T00:44:23;0.20;;;0.20;;
19927;SDS011;10126;50.876;4.470;2022-07-23T00:46:25;0.20;;;0.20;;
19927;SDS011;10126;50.876;4.470;2022-07-23T00:48:25;0.10;;;0.10;;
19927;SDS011;10126;50.876;4.470;2022-07-23T00:50:26;0.20;;;0.20;;
19927;SDS011;10126;50.876;4.470;2022-07-23T00:52:27;0.10;;;0.10;;
19927;SDS011;10126;50.876;4.470;2022-07-23T00:54:28;0.10;;;0.10;;
19927;SDS011;10126;50.876;4.470;2022-07-23T00:56:29;0.10;;;0.10;;
19927;SDS011;10126;50.876;4.470;2022-07-23T00:58:30;0.20;;;0.20;;
19927;SDS011;10126;50.876;4.470;2022-07-23T01:00:32;0.20;;;0.20;;
19927;SDS011;10126;50.876;4.470;2022-07-23T01:02:34;0.20;;;0.20;;
19927;SDS011;10126;50.876;4.470;2022-07-23T01:04:35;0.10;;;0.10;;
19927;SDS011;10126;50.876;4.470;2022-07-23T01:06:37;0.13;;;0.13;;
19927;SDS011;10126;50.876;4.470;2022-07-23T01:08:38;0.20;;;0.20;;
19927;SDS011;10126;50.876;4.470;2022-07-23T01:10:39;0.20;;;0.20;;
19927;SDS011;10126;50.876;4.470;2022-07-23T01:12:41;0.10;;;0.10;;
19927;SDS011;10126;50.876;4.470;2022-07-23T01:14:41;0.10;;;0.10;;
19927;SDS011;10126;50.876;4.470;2022-07-23T01:16:42;0.20;;;0.20;;
19927;SDS011;10126;50.876;4.470;2022-07-23T01:18:44;0.20;;;0.20;;
19927;SDS011;10126;50.876;4.470;2022-07-23T01:20:45;0.10;;;0.10;;
19927;SDS011;10126;50.876;4.470;2022-07-23T01:22:45;0.10;;;0.10;;
19927;SDS011;10126;50.876;4.470;2022-07-23T01:24:46;0.10;;;0.10;;
19927;SDS011;10126;50.876;4.470;2022-07-23T01:26:47;0.10;;;0.10;;
19927;SDS011;10126;50.876;4.470;2022-07-23T01:28:48;0.10;;;0.10;;
19927;SDS011;10126;50.876;4.470;2022-07-23T01:30:49;0.20;;;0.20;;
19927;SDS011;10126;50.876;4.470;2022-07-23T01:32:50;0.10;;;0.10;;
19927;SDS011;10126;50.876;4.470;2022-07-23T01:34:51;0.20;;;0.20;;
19927;SDS011;10126;50.876;4.470;2022-07-23T01:36:51;0.10;;;0.10;;
19927;SDS011;10126;50.876;4.470;2022-07-23T01:38:52;0.10;;;0.10;;
19927;SDS011;10126;50.876;4.470;2022-07-23T01:40:52;0.13;;;0.13;;
19927;SDS011;10126;50.876;4.470;2022-07-23T01:42:53;0.17;;;0.17;;
19927;SDS011;10126;50.876;4.470;2022-07-23T01:44:54;0.20;;;0.20;;
19927;SDS011;10126;50.876;4.470;2022-07-23T01:46:57;0.13;;;0.13;;
19927;SDS011;10126;50.876;4.470;2022-07-23T01:48:58;0.20;;;0.20;;
19927;SDS011;10126;50.876;4.470;2022-07-23T01:50:58;0.10;;;0.10;;
19927;SDS011;10126;50.876;4.470;2022-07-23T01:52:59;0.20;;;0.20;;
19927;SDS011;10126;50.876;4.470;2022-07-23T01:55:00;0.20;;;0.20;;
19927;SDS011;10126;50.876;4.470;2022-07-23T01:57:00;0.20;;;0.20;;
19927;SDS011;10126;50.876;4.470;2022-07-23T01:59:01;0.20;;;0.20;;
19927;SDS011;10126;50.876;4.470;2022-07-23T02:01:02;0.10;;;0.10;;
19927;SDS011;10126;50.876;4.470;2022-07-23T02:03:05;0.10;;;0.10;;
19927;SDS011;10126;50.876;4.470;2022-07-23T02:05:06;0.20;;;0.20;;
19927;SDS011;10126;50.876;4.470;2022-07-23T02:07:07;0.10;;;0.10;;
19927;SDS011;10126;50.876;4.470;2022-07-23T02:09:07;0.10;;;0.10;;
19927;SDS011;10126;50.876;4.470;2022-07-23T02:11:08;0.20;;;0.20;;
19927;SDS011;10126;50.876;4.470;2022-07-23T02:13:08;0.20;;;0.20;;
19927;SDS011;10126;50.876;4.470;2022-07-23T02:15:09;0.20;;;0.20;;
19927;SDS011;10126;50.876;4.470;2022-07-23T02:17:10;0.20;;;0.20;;
19927;SDS011;10126;50.876;4.470;2022-07-23T02:19:10;0.20;;;0.20;;
19927;SDS011;10126;50.876;4.470;2022-07-23T02:21:11;0.20;;;0.20;;
19927;SDS011;10126;50.876;4.470;2022-07-23T02:23:12;0.10;;;0.10;;
19927;SDS011;10126;50.876;4.470;2022-07-23T02:25:13;0.20;;;0.20;;
19927;SDS011;10126;50.876;4.470;2022-07-23T02:27:13;0.20;;;0.20;;
19927;SDS011;10126;50.876;4.470;2022-07-23T02:29:14;0.10;;;0.10;;
19927;SDS011;10126;50.876;4.470;2022-07-23T02:31:14;0.10;;;0.10;;
19927;SDS011;10126;50.876;4.470;2022-07-23T02:33:15;0.10;;;0.10;;
19927;SDS011;10126;50.876;4.470;2022-07-23T02:35:16;0.20;;;0.20;;
19927;SDS011;10126;50.876;4.470;2022-07-23T02:37:17;0.20;;;0.20;;
19927;SDS011;10126;50.876;4.470;2022-07-23T02:39:17;0.20;;;0.20;;
19927;SDS011;10126;50.876;4.470;2022-07-23T02:41:18;0.10;;;0.10;;
19927;SDS011;10126;50.876;4.470;2022-07-23T02:43:19;0.20;;;0.20;;
19927;SDS011;10126;50.876;4.470;2022-07-23T02:45:19;0.10;;;0.10;;
19927;SDS011;10126;50.876;4.470;2022-07-23T02:47:20;0.20;;;0.20;;
19927;SDS011;10126;50.876;4.470;2022-07-23T02:49:21;0.20;;;0.20;;
19927;SDS011;10126;50.876;4.470;2022-07-23T02:51:21;0.20;;;0.20;;
19927;SDS011;10126;50.876;4.470;2022-07-23T02:53:22;0.10;;;0.10;;
19927;SDS011;10126;50.876;4.470;2022-07-23T02:55:23;0.20;;;0.20;;
19927;SDS011;10126;50.876;4.470;2022-07-23T02:57:24;0.10;;;0.10;;
19927;SDS011;10126;50.876;4.470;2022-07-23T02:59:25;0.10;;;0.10;;
19927;SDS011;10126;50.876;4.470;2022-07-23T03:01:25;0.20;;;0.20;;
19927;SDS011;10126;50.876;4.470;2022-07-23T03:03:26;0.10;;;0.10;;
19927;SDS011;10126;50.876;4.470;2022-07-23T03:05:27;0.20;;;0.20;;
19927;SDS011;10126;50.876;4.470;2022-07-23T03:07:27;0.10;;;0.10;;
19927;SDS011;10126;50.876;4.470;2022-07-23T03:09:28;0.10;;;0.10;;
19927;SDS011;10126;50.876;4.470;2022-07-23T03:11:29;0.20;;;0.20;;
19927;SDS011;10126;50.876;4.470;2022-07-23T03:13:29;0.13;;;0.13;;
19927;SDS011;10126;50.876;4.470;2022-07-23T03:15:30;0.20;;;0.20;;
19927;SDS011;10126;50.876;4.470;2022-07-23T03:17:30;0.20;;;0.20;;
19927;SDS011;10126;50.876;4.470;2022-07-23T03:19:31;0.20;;;0.20;;
19927;SDS011;10126;50.876;4.470;2022-07-23T03:21:32;0.10;;;0.10;;
19927;SDS011;10126;50.876;4.470;2022-07-23T03:23:32;0.10;;;0.10;;
19927;SDS011;10126;50.876;4.470;2022-07-23T03:25:33;0.20;;;0.20;;
19927;SDS011;10126;50.876;4.470;2022-07-23T03:27:34;0.10;;;0.10;;
19927;SDS011;10126;50.876;4.470;2022-07-23T03:29:34;0.13;;;0.13;;
19927;SDS011;10126;50.876;4.470;2022-07-23T03:31:36;0.20;;;0.20;;
19927;SDS011;10126;50.876;4.470;2022-07-23T03:33:37;0.10;;;0.10;;
19927;SDS011;10126;50.876;4.470;2022-07-23T03:35:38;0.10;;;0.10;;
19927;SDS011;10126;50.876;4.470;2022-07-23T03:37:38;0.20;;;0.20;;
19927;SDS011;10126;50.876;4.470;2022-07-23T03:39:39;0.10;;;0.10;;
19927;SDS011;10126;50.876;4.470;2022-07-23T03:41:40;0.20;;;0.20;;
19927;SDS011;10126;50.876;4.470;2022-07-23T03:43:41;0.20;;;0.20;;
19927;SDS011;10126;50.876;4.470;2022-07-23T03:45:42;0.20;;;0.20;;
19927;SDS011;10126;50.876;4.470;2022-07-23T03:47:42;0.10;;;0.10;;
19927;SDS011;10126;50.876;4.470;2022-07-23T03:49:44;0.10;;;0.10;;
19927;SDS011;10126;50.876;4.470;2022-07-23T03:51:44;0.17;;;0.17;;
19927;SDS011;10126;50.876;4.470;2022-07-23T03:53:45;0.20;;;0.20;;
19927;SDS011;10126;50.876;4.470;2022-07-23T03:55:46;0.20;;;0.20;;
19927;SDS011;10126;50.876;4.470;2022-07-23T03:57:46;0.20;;;0.20;;
19927;SDS011;10126;50.876;4.470;2022-07-23T03:59:47;0.20;;;0.20;;
19927;SDS011;10126;50.876;4.470;2022-07-23T04:01:48;0.10;;;0.10;;
19927;SDS011;10126;50.876;4.470;2022-07-23T04:03:48;0.20;;;0.20;;
19927;SDS011;10126;50.876;4.470;2022-07-23T04:05:49;0.10;;;0.10;;
19927;SDS011;10126;50.876;4.470;2022-07-23T04:07:49;0.20;;;0.20;;
19927;SDS011;10126;50.876;4.470;2022-07-23T04:09:50;0.20;;;0.20;;
19927;SDS011;10126;50.876;4.470;2022-07-23T04:11:51;0.10;;;0.10;;
19927;SDS011;10126;50.876;4.470;2022-07-23T04:13:51;0.10;;;0.10;;
19927;SDS011;10126;50.876;4.470;2022-07-23T04:15:52;0.20;;;0.20;;
19927;SDS011;10126;50.876;4.470;2022-07-23T04:17:53;0.10;;;0.10;;
19927;SDS011;10126;50.876;4.470;2022-07-23T04:19:53;0.10;;;0.10;;
19927;SDS011;10126;50.876;4.470;2022-07-23T04:21:54;0.20;;;0.20;;
19927;SDS011;10126;50.876;4.470;2022-07-23T04:23:55;0.20;;;0.20;;
19927;SDS011;10126;50.876;4.470;2022-07-23T04:25:55;0.10;;;0.10;;
19927;SDS011;10126;50.876;4.470;2022-07-23T04:27:56;0.10;;;0.10;;
19927;SDS011;10126;50.876;4.470;2022-07-23T04:29:56;0.10;;;0.10;;
19927;SDS011;10126;50.876;4.470;2022-07-23T04:31:57;0.20;;;0.20;;
19927;SDS011;10126;50.876;4.470;2022-07-23T04:33:58;0.10;;;0.10;;
19927;SDS011;10126;50.876;4.470;2022-07-23T04:35:58;0.20;;;0.20;;
19927;SDS011;10126;50.876;4.470;2022-07-23T04:37:59;0.20;;;0.20;;
19927;SDS011;10126;50.876;4.470;2022-07-23T04:40:00;0.20;;;0.20;;
19927;SDS011;10126;50.876;4.470;2022-07-23T04:42:00;0.20;;;0.20;;
19927;SDS011;10126;50.876;4.470;2022-07-23T04:44:01;0.20;;;0.20;;
19927;SDS011;10126;50.876;4.470;2022-07-23T04:46:02;0.20;;;0.20;;
19927;SDS011;10126;50.876;4.470;2022-07-23T04:48:03;0.20;;;0.20;;
19927;SDS011;10126;50.876;4.470;2022-07-23T04:50:04;0.20;;;0.20;;
19927;SDS011;10126;50.876;4.470;2022-07-23T04:52:05;0.20;;;0.20;;
19927;SDS011;10126;50.876;4.470;2022-07-23T04:54:06;0.10;;;0.10;;
19927;SDS011;10126;50.876;4.470;2022-07-23T04:56:06;0.10;;;0.10;;
19927;SDS011;10126;50.876;4.470;2022-07-23T04:58:07;0.10;;;0.10;;
19927;SDS011;10126;50.876;4.470;2022-07-23T05:00:08;0.10;;;0.10;;
19927;SDS011;10126;50.876;4.470;2022-07-23T05:02:09;0.10;;;0.10;;
19927;SDS011;10126;50.876;4.470;2022-07-23T05:04:10;0.10;;;0.10;;
19927;SDS011;10126;50.876;4.470;2022-07-23T05:06:10;0.10;;;0.10;;
19927;SDS011;10126;50.876;4.470;2022-07-23T05:08:11;0.10;;;0.10;;
19927;SDS011;10126;50.876;4.470;2022-07-23T05:10:12;0.10;;;0.10;;
19927;SDS011;10126;50.876;4.470;2022-07-23T05:12:13;0.10;;;0.10;;
19927;SDS011;10126;50.876;4.470;2022-07-23T05:14:13;0.10;;;0.10;;
19927;SDS011;10126;50.876;4.470;2022-07-23T05:16:14;0.10;;;0.10;;
19927;SDS011;10126;50.876;4.470;2022-07-23T05:18:15;0.00;;;0.00;;
19927;SDS011;10126;50.876;4.470;2022-07-23T05:20:15;0.10;;;0.10;;
19927;SDS011;10126;50.876;4.470;2022-07-23T05:22:16;0.00;;;0.00;;
19927;SDS011;10126;50.876;4.470;2022-07-23T05:24:17;0.10;;;0.10;;
19927;SDS011;10126;50.876;4.470;2022-07-23T05:26:17;0.00;;;0.00;;
19927;SDS011;10126;50.876;4.470;2022-07-23T05:28:18;0.00;;;0.00;;
19927;SDS011;10126;50.876;4.470;2022-07-23T05:30:18;0.08;;;0.08;;
19927;SDS011;10126;50.876;4.470;2022-07-23T05:32:19;0.00;;;0.00;;
19927;SDS011;10126;50.876;4.470;2022-07-23T05:34:20;0.00;;;0.00;;
19927;SDS011;10126;50.876;4.470;2022-07-23T05:36:20;0.00;;;0.00;;
19927;SDS011;10126;50.876;4.470;2022-07-23T05:38:21;0.00;;;0.00;;
19927;SDS011;10126;50.876;4.470;2022-07-23T05:40:22;0.00;;;0.00;;
19927;SDS011;10126;50.876;4.470;2022-07-23T05:42:22;0.00;;;0.00;;
19927;SDS011;10126;50.876;4.470;2022-07-23T05:44:23;0.00;;;0.00;;
19927;SDS011;10126;50.876;4.470;2022-07-23T05:46:24;0.00;;;0.00;;
19927;SDS011;10126;50.876;4.470;2022-07-23T05:48:24;0.10;;;0.10;;
19927;SDS011;10126;50.876;4.470;2022-07-23T05:50:25;0.05;;;0.05;;
19927;SDS011;10126;50.876;4.470;2022-07-23T05:52:26;0.10;;;0.10;;
19927;SDS011;10126;50.876;4.470;2022-07-23T05:54:27;0.00;;;0.00;;
19927;SDS011;10126;50.876;4.470;2022-07-23T05:56:27;0.00;;;0.00;;
19927;SDS011;10126;50.876;4.470;2022-07-23T05:58:28;0.10;;;0.10;;
19927;SDS011;10126;50.876;4.470;2022-07-23T06:00:29;0.10;;;0.10;;
19927;SDS011;10126;50.876;4.470;2022-07-23T06:02:30;0.10;;;0.10;;
19927;SDS011;10126;50.876;4.470;2022-07-23T06:04:30;0.10;;;0.10;;
19927;SDS011;10126;50.876;4.470;2022-07-23T06:06:31;0.03;;;0.03;;
19927;SDS011;10126;50.876;4.470;2022-07-23T06:08:31;0.03;;;0.03;;
19927;SDS011;10126;50.876;4.470;2022-07-23T06:10:32;0.00;;;0.00;;
19927;SDS011;10126;50.876;4.470;2022-07-23T06:12:33;0.10;;;0.10;;
19927;SDS011;10126;50.876;4.470;2022-07-23T06:14:34;0.10;;;0.10;;
19927;SDS011;10126;50.876;4.470;2022-07-23T06:16:34;0.10;;;0.10;;
19927;SDS011;10126;50.876;4.470;2022-07-23T06:18:35;0.10;;;0.10;;
19927;SDS011;10126;50.876;4.470;2022-07-23T06:20:36;0.10;;;0.10;;
19927;SDS011;10126;50.876;4.470;2022-07-23T06:22:36;0.00;;;0.00;;
19927;SDS011;10126;50.876;4.470;2022-07-23T06:24:37;0.00;;;0.00;;
19927;SDS011;10126;50.876;4.470;2022-07-23T06:26:38;0.00;;;0.00;;
19927;SDS011;10126;50.876;4.470;2022-07-23T06:28:39;0.03;;;0.03;;
19927;SDS011;10126;50.876;4.470;2022-07-23T06:30:39;0.00;;;0.00;;
19927;SDS011;10126;50.876;4.470;2022-07-23T06:32:40;0.10;;;0.10;;
19927;SDS011;10126;50.876;4.470;2022-07-23T06:34:41;0.00;;;0.00;;
19927;SDS011;10126;50.876;4.470;2022-07-23T06:36:41;0.00;;;0.00;;
19927;SDS011;10126;50.876;4.470;2022-07-23T06:38:42;0.00;;;0.00;;
19927;SDS011;10126;50.876;4.470;2022-07-23T06:40:43;0.00;;;0.00;;
19927;SDS011;10126;50.876;4.470;2022-07-23T06:42:44;0.00;;;0.00;;
19927;SDS011;10126;50.876;4.470;2022-07-23T06:44:45;0.00;;;0.00;;
19927;SDS011;10126;50.876;4.470;2022-07-23T06:46:46;0.00;;;0.00;;
19927;SDS011;10126;50.876;4.470;2022-07-23T06:48:46;0.00;;;0.00;;
19927;SDS011;10126;50.876;4.470;2022-07-23T06:50:47;0.00;;;0.00;;
19927;SDS011;10126;50.876;4.470;2022-07-23T06:52:48;0.00;;;0.00;;
19927;SDS011;10126;50.876;4.470;2022-07-23T06:54:48;0.00;;;0.00;;
19927;SDS011;10126;50.876;4.470;2022-07-23T06:56:52;0.00;;;0.00;;
19927;SDS011;10126;50.876;4.470;2022-07-23T06:58:53;0.00;;;0.00;;
19927;SDS011;10126;50.876;4.470;2022-07-23T07:00:53;0.00;;;0.00;;
19927;SDS011;10126;50.876;4.470;2022-07-23T07:02:54;0.00;;;0.00;;
19927;SDS011;10126;50.876;4.470;2022-07-23T07:04:55;0.00;;;0.00;;
19927;SDS011;10126;50.876;4.470;2022-07-23T07:06:56;0.00;;;0.00;;
19927;SDS011;10126;50.876;4.470;2022-07-23T07:08:56;0.00;;;0.00;;
19927;SDS011;10126;50.876;4.470;2022-07-23T07:10:57;0.00;;;0.00;;
19927;SDS011;10126;50.876;4.470;2022-07-23T07:12:58;0.00;;;0.00;;
19927;SDS011;10126;50.876;4.470;2022-07-23T07:14:58;0.00;;;0.00;;
19927;SDS011;10126;50.876;4.470;2022-07-23T07:16:59;0.00;;;0.00;;
19927;SDS011;10126;50.876;4.470;2022-07-23T07:19:00;0.00;;;0.00;;
19927;SDS011;10126;50.876;4.470;2022-07-23T07:21:00;0.00;;;0.00;;
19927;SDS011;10126;50.876;4.470;2022-07-23T07:23:01;0.00;;;0.00;;
19927;SDS011;10126;50.876;4.470;2022-07-23T07:25:02;0.00;;;0.00;;
19927;SDS011;10126;50.876;4.470;2022-07-23T07:27:03;0.00;;;0.00;;
19927;SDS011;10126;50.876;4.470;2022-07-23T07:29:03;0.00;;;0.00;;
19927;SDS011;10126;50.876;4.470;2022-07-23T07:31:04;0.00;;;0.00;;
19927;SDS011;10126;50.876;4.470;2022-07-23T07:33:06;0.00;;;0.00;;
19927;SDS011;10126;50.876;4.470;2022-07-23T07:35:07;0.00;;;0.00;;
19927;SDS011;10126;50.876;4.470;2022-07-23T07:37:08;0.00;;;0.00;;
19927;SDS011;10126;50.876;4.470;2022-07-23T07:39:08;0.00;;;0.00;;
19927;SDS011;10126;50.876;4.470;2022-07-23T07:41:10;0.00;;;0.00;;
19927;SDS011;10126;50.876;4.470;2022-07-23T07:43:12;0.00;;;0.00;;
19927;SDS011;10126;50.876;4.470;2022-07-23T07:45:12;0.00;;;0.00;;
19927;SDS011;10126;50.876;4.470;2022-07-23T07:47:13;0.00;;;0.00;;
19927;SDS011;10126;50.876;4.470;2022-07-23T07:49:15;0.00;;;0.00;;
19927;SDS011;10126;50.876;4.470;2022-07-23T07:51:19;0.00;;;0.00;;
19927;SDS011;10126;50.876;4.470;2022-07-23T07:53:19;0.00;;;0.00;;
19927;SDS011;10126;50.876;4.470;2022-07-23T07:55:20;0.00;;;0.00;;
19927;SDS011;10126;50.876;4.470;2022-07-23T07:57:21;0.00;;;0.00;;
19927;SDS011;10126;50.876;4.470;2022-07-23T07:59:21;0.00;;;0.00;;
19927;SDS011;10126;50.876;4.470;2022-07-23T08:01:22;0.00;;;0.00;;
19927;SDS011;10126;50.876;4.470;2022-07-23T08:03:25;0.00;;;0.00;;
19927;SDS011;10126;50.876;4.470;2022-07-23T08:05:27;0.00;;;0.00;;
19927;SDS011;10126;50.876;4.470;2022-07-23T08:07:29;0.00;;;0.00;;
19927;SDS011;10126;50.876;4.470;2022-07-23T08:09:30;0.00;;;0.00;;
19927;SDS011;10126;50.876;4.470;2022-07-23T08:11:31;0.00;;;0.00;;
19927;SDS011;10126;50.876;4.470;2022-07-23T08:13:31;0.00;;;0.00;;
19927;SDS011;10126;50.876;4.470;2022-07-23T08:15:32;0.00;;;0.00;;
19927;SDS011;10126;50.876;4.470;2022-07-23T08:17:33;0.00;;;0.00;;
19927;SDS011;10126;50.876;4.470;2022-07-23T08:19:33;0.00;;;0.00;;
19927;SDS011;10126;50.876;4.470;2022-07-23T08:21:34;0.00;;;0.00;;
19927;SDS011;10126;50.876;4.470;2022-07-23T08:23:35;0.00;;;0.00;;
19927;SDS011;10126;50.876;4.470;2022-07-23T08:25:37;0.00;;;0.00;;
19927;SDS011;10126;50.876;4.470;2022-07-23T08:27:38;0.00;;;0.00;;
19927;SDS011;10126;50.876;4.470;2022-07-23T08:29:39;0.00;;;0.00;;
19927;SDS011;10126;50.876;4.470;2022-07-23T08:31:40;0.00;;;0.00;;
19927;SDS011;10126;50.876;4.470;2022-07-23T08:33:40;0.00;;;0.00;;
19927;SDS011;10126;50.876;4.470;2022-07-23T08:35:42;0.00;;;0.00;;
19927;SDS011;10126;50.876;4.470;2022-07-23T08:37:47;0.00;;;0.00;;
19927;SDS011;10126;50.876;4.470;2022-07-23T08:39:48;0.00;;;0.00;;
19927;SDS011;10126;50.876;4.470;2022-07-23T08:41:48;0.00;;;0.00;;
19927;SDS011;10126;50.876;4.470;2022-07-23T08:43:50;0.00;;;0.00;;
19927;SDS011;10126;50.876;4.470;2022-07-23T08:45:53;0.00;;;0.00;;
19927;SDS011;10126;50.876;4.470;2022-07-23T08:47:58;0.00;;;0.00;;
19927;SDS011;10126;50.876;4.470;2022-07-23T08:49:59;0.00;;;0.00;;
19927;SDS011;10126;50.876;4.470;2022-07-23T08:52:01;0.00;;;0.00;;
19927;SDS011;10126;50.876;4.470;2022-07-23T08:54:02;0.00;;;0.00;;
19927;SDS011;10126;50.876;4.470;2022-07-23T08:56:04;0.00;;;0.00;;
19927;SDS011;10126;50.876;4.470;2022-07-23T08:58:05;0.00;;;0.00;;
19927;SDS011;10126;50.876;4.470;2022-07-23T09:00:06;0.00;;;0.00;;
19927;SDS011;10126;50.876;4.470;2022-07-23T09:02:08;0.00;;;0.00;;
19927;SDS011;10126;50.876;4.470;2022-07-23T09:04:08;0.00;;;0.00;;
19927;SDS011;10126;50.876;4.470;2022-07-23T09:06:09;0.00;;;0.00;;
19927;SDS011;10126;50.876;4.470;2022-07-23T09:10:14;0.00;;;0.00;;
19927;SDS011;10126;50.876;4.470;2022-07-23T09:12:15;0.00;;;0.00;;
19927;SDS011;10126;50.876;4.470;2022-07-23T09:14:16;0.00;;;0.00;;
19927;SDS011;10126;50.876;4.470;2022-07-23T09:16:42;0.00;;;0.00;;
19927;SDS011;10126;50.876;4.470;2022-07-23T09:18:49;0.00;;;0.00;;
19927;SDS011;10126;50.876;4.470;2022-07-23T09:21:16;0.00;;;0.00;;
19927;SDS011;10126;50.876;4.470;2022-07-23T09:23:20;0.00;;;0.00;;
19927;SDS011;10126;50.876;4.470;2022-07-23T09:25:36;0.00;;;0.00;;
19927;SDS011;10126;50.876;4.470;2022-07-23T09:27:53;0.00;;;0.00;;
19927;SDS011;10126;50.876;4.470;2022-07-23T09:29:56;0.00;;;0.00;;
19927;SDS011;10126;50.876;4.470;2022-07-23T09:31:58;0.00;;;0.00;;
19927;SDS011;10126;50.876;4.470;2022-07-23T09:34:12;0.00;;;0.00;;
19927;SDS011;10126;50.876;4.470;2022-07-23T09:36:26;0.00;;;0.00;;
19927;SDS011;10126;50.876;4.470;2022-07-23T09:38:28;0.00;;;0.00;;
19927;SDS011;10126;50.876;4.470;2022-07-23T09:40:29;0.00;;;0.00;;
19927;SDS011;10126;50.876;4.470;2022-07-23T09:42:29;0.00;;;0.00;;
19927;SDS011;10126;50.876;4.470;2022-07-23T09:44:30;0.00;;;0.00;;
19927;SDS011;10126;50.876;4.470;2022-07-23T09:46:42;0.00;;;0.00;;
19927;SDS011;10126;50.876;4.470;2022-07-23T09:48:47;0.00;;;0.00;;
19927;SDS011;10126;50.876;4.470;2022-07-23T09:50:48;0.00;;;0.00;;
19927;SDS011;10126;50.876;4.470;2022-07-23T09:52:51;0.00;;;0.00;;
19927;SDS011;10126;50.876;4.470;2022-07-23T09:54:57;0.00;;;0.00;;
19927;SDS011;10126;50.876;4.470;2022-07-23T09:57:03;0.00;;;0.00;;
19927;SDS011;10126;50.876;4.470;2022-07-23T09:59:16;0.00;;;0.00;;
19927;SDS011;10126;50.876;4.470;2022-07-23T10:01:19;0.00;;;0.00;;
19927;SDS011;10126;50.876;4.470;2022-07-23T10:03:21;0.00;;;0.00;;
19927;SDS011;10126;50.876;4.470;2022-07-23T10:05:24;0.00;;;0.00;;
19927;SDS011;10126;50.876;4.470;2022-07-23T10:07:25;0.00;;;0.00;;
19927;SDS011;10126;50.876;4.470;2022-07-23T10:09:29;0.00;;;0.00;;
19927;SDS011;10126;50.876;4.470;2022-07-23T10:11:31;0.00;;;0.00;;
19927;SDS011;10126;50.876;4.470;2022-07-23T10:13:33;0.00;;;0.00;;
19927;SDS011;10126;50.876;4.470;2022-07-23T10:15:55;0.00;;;0.00;;
19927;SDS011;10126;50.876;4.470;2022-07-23T10:17:55;0.00;;;0.00;;
19927;SDS011;10126;50.876;4.470;2022-07-23T10:19:56;0.00;;;0.00;;
19927;SDS011;10126;50.876;4.470;2022-07-23T10:22:00;0.00;;;0.00;;
19927;SDS011;10126;50.876;4.470;2022-07-23T10:35:31;0.00;;;0.00;;
19927;SDS011;10126;50.876;4.470;2022-07-23T10:37:43;0.00;;;0.00;;
19927;SDS011;10126;50.876;4.470;2022-07-23T10:39:49;0.00;;;0.00;;
19927;SDS011;10126;50.876;4.470;2022-07-23T10:42:18;0.00;;;0.00;;
19927;SDS011;10126;50.876;4.470;2022-07-23T10:44:20;0.00;;;0.00;;
19927;SDS011;10126;50.876;4.470;2022-07-23T10:46:26;0.00;;;0.00;;
19927;SDS011;10126;50.876;4.470;2022-07-23T10:48:33;0.00;;;0.00;;
19927;SDS011;10126;50.876;4.470;2022-07-23T10:50:34;0.10;;;0.00;;
19927;SDS011;10126;50.876;4.470;2022-07-23T10:52:35;0.00;;;0.00;;
19927;SDS011;10126;50.876;4.470;2022-07-23T10:54:36;0.00;;;0.00;;
19927;SDS011;10126;50.876;4.470;2022-07-23T10:58:59;0.00;;;0.00;;
19927;SDS011;10126;50.876;4.470;2022-07-23T11:01:11;0.00;;;0.00;;
19927;SDS011;10126;50.876;4.470;2022-07-23T11:03:35;0.10;;;0.10;;
19927;SDS011;10126;50.876;4.470;2022-07-23T11:05:42;0.00;;;0.00;;
19927;SDS011;10126;50.876;4.470;2022-07-23T11:10:03;0.00;;;0.00;;
19927;SDS011;10126;50.876;4.470;2022-07-23T11:12:47;0.00;;;0.00;;
19927;SDS011;10126;50.876;4.470;2022-07-23T11:14:57;0.00;;;0.00;;
19927;SDS011;10126;50.876;4.470;2022-07-23T11:16:57;0.00;;;0.00;;
19927;SDS011;10126;50.876;4.470;2022-07-23T11:18:59;0.00;;;0.00;;
19927;SDS011;10126;50.876;4.470;2022-07-23T11:21:36;0.00;;;0.00;;
19927;SDS011;10126;50.876;4.470;2022-07-23T11:26:02;0.00;;;0.00;;
19927;SDS011;10126;50.876;4.470;2022-07-23T11:28:16;0.00;;;0.00;;
19927;SDS011;10126;50.876;4.470;2022-07-23T11:30:51;0.00;;;0.00;;
19927;SDS011;10126;50.876;4.470;2022-07-23T11:32:45;0.00;;;0.00;;
19927;SDS011;10126;50.876;4.470;2022-07-23T11:34:47;0.00;;;0.00;;
19927;SDS011;10126;50.876;4.470;2022-07-23T11:36:49;0.00;;;0.00;;
19927;SDS011;10126;50.876;4.470;2022-07-23T11:38:50;0.00;;;0.00;;
19927;SDS011;10126;50.876;4.470;2022-07-23T11:40:55;0.00;;;0.00;;
19927;SDS011;10126;50.876;4.470;2022-07-23T11:43:00;0.10;;;0.10;;
19927;SDS011;10126;50.876;4.470;2022-07-23T11:45:03;0.00;;;0.00;;
19927;SDS011;10126;50.876;4.470;2022-07-23T11:47:10;0.00;;;0.00;;
19927;SDS011;10126;50.876;4.470;2022-07-23T11:49:12;0.00;;;0.00;;
19927;SDS011;10126;50.876;4.470;2022-07-23T11:51:24;0.00;;;0.00;;
19927;SDS011;10126;50.876;4.470;2022-07-23T11:53:26;0.00;;;0.00;;
19927;SDS011;10126;50.876;4.470;2022-07-23T11:55:29;0.00;;;0.00;;
19927;SDS011;10126;50.876;4.470;2022-07-23T11:57:34;0.00;;;0.00;;
19927;SDS011;10126;50.876;4.470;2022-07-23T11:59:36;0.00;;;0.00;;
19927;SDS011;10126;50.876;4.470;2022-07-23T12:01:38;0.00;;;0.00;;
19927;SDS011;10126;50.876;4.470;2022-07-23T12:03:59;0.00;;;0.00;;
19927;SDS011;10126;50.876;4.470;2022-07-23T12:06:00;0.10;;;0.10;;
19927;SDS011;10126;50.876;4.470;2022-07-23T12:08:01;0.00;;;0.00;;
19927;SDS011;10126;50.876;4.470;2022-07-23T12:10:13;0.00;;;0.00;;
19927;SDS011;10126;50.876;4.470;2022-07-23T12:12:15;0.00;;;0.00;;
19927;SDS011;10126;50.876;4.470;2022-07-23T12:14:16;0.00;;;0.00;;
19927;SDS011;10126;50.876;4.470;2022-07-23T12:16:17;0.00;;;0.00;;
19927;SDS011;10126;50.876;4.470;2022-07-23T12:18:22;0.00;;;0.00;;
19927;SDS011;10126;50.876;4.470;2022-07-23T12:20:25;0.00;;;0.00;;
19927;SDS011;10126;50.876;4.470;2022-07-23T12:22:33;0.03;;;0.03;;
19927;SDS011;10126;50.876;4.470;2022-07-23T12:25:01;0.00;;;0.00;;
19927;SDS011;10126;50.876;4.470;2022-07-23T12:27:08;0.00;;;0.00;;
19927;SDS011;10126;50.876;4.470;2022-07-23T12:29:10;0.00;;;0.00;;
19927;SDS011;10126;50.876;4.470;2022-07-23T12:31:10;0.00;;;0.00;;
19927;SDS011;10126;50.876;4.470;2022-07-23T12:33:20;0.00;;;0.00;;
19927;SDS011;10126;50.876;4.470;2022-07-23T12:35:36;0.00;;;0.00;;
19927;SDS011;10126;50.876;4.470;2022-07-23T12:37:42;0.00;;;0.00;;
19927;SDS011;10126;50.876;4.470;2022-07-23T12:39:45;0.00;;;0.00;;